sensor_id;sensor_type;location;lat;lon;timestamp;P1;durP1;ratioP1;P2;durP2;ratioP2
45039;SDS011;30778;53.574;7.770;2022-08-05T00:01:25;2.28;;;0.70;;
45039;SDS011;30778;53.574;7.770;2022-08-05T00:03:50;4.95;;;0.70;;
45039;SDS011;30778;53.574;7.770;2022-08-05T00:06:16;3.80;;;0.80;;
45039;SDS011;30778;53.574;7.770;2022-08-05T00:08:42;4.45;;;0.60;;
45039;SDS011;30778;53.574;7.770;2022-08-05T00:11:10;4.18;;;0.95;;
45039;SDS011;30778;53.574;7.770;2022-08-05T00:13:40;2.73;;;0.93;;
45039;SDS011;30778;53.574;7.770;2022-08-05T00:16:08;5.47;;;1.00;;
45039;SDS011;30778;53.574;7.770;2022-08-05T00:18:35;3.58;;;1.10;;
45039;SDS011;30778;53.574;7.770;2022-08-05T00:21:01;3.92;;;0.88;;
45039;SDS011;30778;53.574;7.770;2022-08-05T00:23:27;6.22;;;1.40;;
45039;SDS011;30778;53.574;7.770;2022-08-05T00:25:52;7.22;;;0.90;;
45039;SDS011;30778;53.574;7.770;2022-08-05T00:28:18;8.45;;;1.25;;
45039;SDS011;30778;53.574;7.770;2022-08-05T00:30:43;1.20;;;0.70;;
45039;SDS011;30778;53.574;7.770;2022-08-05T00:33:09;3.33;;;2.05;;
45039;SDS011;30778;53.574;7.770;2022-08-05T00:35:34;2.08;;;0.85;;
45039;SDS011;30778;53.574;7.770;2022-08-05T00:38:00;1.88;;;0.93;;
45039;SDS011;30778;53.574;7.770;2022-08-05T00:40:26;3.17;;;0.93;;
45039;SDS011;30778;53.574;7.770;2022-08-05T00:42:52;3.50;;;0.75;;
45039;SDS011;30778;53.574;7.770;2022-08-05T00:45:18;3.22;;;1.30;;
45039;SDS011;30778;53.574;7.770;2022-08-05T00:47:43;2.25;;;1.58;;
45039;SDS011;30778;53.574;7.770;2022-08-05T00:50:09;3.85;;;1.80;;
45039;SDS011;30778;53.574;7.770;2022-08-05T00:52:34;4.32;;;1.70;;
45039;SDS011;30778;53.574;7.770;2022-08-05T00:55:00;4.25;;;1.25;;
45039;SDS011;30778;53.574;7.770;2022-08-05T00:57:26;2.17;;;0.90;;
45039;SDS011;30778;53.574;7.770;2022-08-05T00:59:52;4.50;;;1.60;;
45039;SDS011;30778;53.574;7.770;2022-08-05T01:02:17;10.57;;;1.48;;
45039;SDS011;30778;53.574;7.770;2022-08-05T01:04:43;4.30;;;1.65;;
45039;SDS011;30778;53.574;7.770;2022-08-05T01:07:08;3.65;;;1.75;;
45039;SDS011;30778;53.574;7.770;2022-08-05T01:09:34;5.32;;;2.20;;
45039;SDS011;30778;53.574;7.770;2022-08-05T01:12:05;8.90;;;2.20;;
45039;SDS011;30778;53.574;7.770;2022-08-05T01:14:53;6.13;;;2.45;;
45039;SDS011;30778;53.574;7.770;2022-08-05T01:17:33;7.22;;;2.30;;
45039;SDS011;30778;53.574;7.770;2022-08-05T01:20:17;4.93;;;1.65;;
45039;SDS011;30778;53.574;7.770;2022-08-05T01:23:12;3.95;;;1.48;;
45039;SDS011;30778;53.574;7.770;2022-08-05T01:31:03;2.15;;;1.17;;
45039;SDS011;30778;53.574;7.770;2022-08-05T01:33:34;3.55;;;1.10;;
45039;SDS011;30778;53.574;7.770;2022-08-05T01:36:08;3.10;;;1.13;;
45039;SDS011;30778;53.574;7.770;2022-08-05T01:38:37;2.50;;;0.85;;
45039;SDS011;30778;53.574;7.770;2022-08-05T01:41:04;1.33;;;0.70;;
45039;SDS011;30778;53.574;7.770;2022-08-05T01:43:30;3.22;;;1.35;;
45039;SDS011;30778;53.574;7.770;2022-08-05T01:45:57;2.10;;;0.55;;
45039;SDS011;30778;53.574;7.770;2022-08-05T01:48:26;2.85;;;1.00;;
45039;SDS011;30778;53.574;7.770;2022-08-05T01:50:54;5.07;;;0.68;;
45039;SDS011;30778;53.574;7.770;2022-08-05T01:53:21;1.55;;;0.60;;
45039;SDS011;30778;53.574;7.770;2022-08-05T01:55:48;2.03;;;0.40;;
45039;SDS011;30778;53.574;7.770;2022-08-05T01:58:16;4.07;;;0.50;;
45039;SDS011;30778;53.574;7.770;2022-08-05T02:00:44;3.97;;;1.02;;
45039;SDS011;30778;53.574;7.770;2022-08-05T02:03:26;3.17;;;1.05;;
45039;SDS011;30778;53.574;7.770;2022-08-05T02:05:55;1.60;;;1.00;;
45039;SDS011;30778;53.574;7.770;2022-08-05T02:08:21;5.35;;;0.93;;
45039;SDS011;30778;53.574;7.770;2022-08-05T02:10:48;1.90;;;0.50;;
45039;SDS011;30778;53.574;7.770;2022-08-05T02:13:21;3.25;;;0.50;;
45039;SDS011;30778;53.574;7.770;2022-08-05T02:18:41;6.00;;;1.10;;
45039;SDS011;30778;53.574;7.770;2022-08-05T02:21:13;2.85;;;0.70;;
45039;SDS011;30778;53.574;7.770;2022-08-05T02:23:43;0.80;;;0.40;;
45039;SDS011;30778;53.574;7.770;2022-08-05T02:26:12;1.67;;;0.90;;
45039;SDS011;30778;53.574;7.770;2022-08-05T02:28:43;4.75;;;0.82;;
45039;SDS011;30778;53.574;7.770;2022-08-05T02:31:22;4.75;;;1.17;;
45039;SDS011;30778;53.574;7.770;2022-08-05T02:33:52;5.38;;;0.55;;
45039;SDS011;30778;53.574;7.770;2022-08-05T02:36:22;1.42;;;0.50;;
45039;SDS011;30778;53.574;7.770;2022-08-05T02:38:49;1.00;;;0.38;;
45039;SDS011;30778;53.574;7.770;2022-08-05T02:41:19;4.43;;;0.75;;
45039;SDS011;30778;53.574;7.770;2022-08-05T02:43:46;4.80;;;0.73;;
45039;SDS011;30778;53.574;7.770;2022-08-05T02:46:16;4.78;;;0.43;;
45039;SDS011;30778;53.574;7.770;2022-08-05T02:48:44;1.08;;;0.70;;
45039;SDS011;30778;53.574;7.770;2022-08-05T02:51:11;4.03;;;0.73;;
45039;SDS011;30778;53.574;7.770;2022-08-05T02:53:38;4.15;;;0.50;;
45039;SDS011;30778;53.574;7.770;2022-08-05T02:56:07;4.88;;;1.48;;
45039;SDS011;30778;53.574;7.770;2022-08-05T02:58:36;2.13;;;1.50;;
45039;SDS011;30778;53.574;7.770;2022-08-05T03:01:05;3.28;;;1.15;;
45039;SDS011;30778;53.574;7.770;2022-08-05T03:03:33;4.03;;;1.55;;
45039;SDS011;30778;53.574;7.770;2022-08-05T03:06:03;2.72;;;0.95;;
45039;SDS011;30778;53.574;7.770;2022-08-05T03:08:29;2.75;;;0.90;;
45039;SDS011;30778;53.574;7.770;2022-08-05T03:10:56;2.50;;;0.80;;
45039;SDS011;30778;53.574;7.770;2022-08-05T03:13:21;2.80;;;1.10;;
45039;SDS011;30778;53.574;7.770;2022-08-05T03:15:47;1.63;;;0.88;;
45039;SDS011;30778;53.574;7.770;2022-08-05T03:18:12;3.35;;;0.82;;
45039;SDS011;30778;53.574;7.770;2022-08-05T03:20:38;7.43;;;1.48;;
45039;SDS011;30778;53.574;7.770;2022-08-05T03:23:05;3.63;;;0.88;;
45039;SDS011;30778;53.574;7.770;2022-08-05T03:25:36;7.45;;;1.73;;
45039;SDS011;30778;53.574;7.770;2022-08-05T03:28:03;5.75;;;1.33;;
45039;SDS011;30778;53.574;7.770;2022-08-05T03:30:31;2.97;;;0.95;;
45039;SDS011;30778;53.574;7.770;2022-08-05T03:32:58;2.95;;;1.10;;
45039;SDS011;30778;53.574;7.770;2022-08-05T03:35:24;5.10;;;0.75;;
45039;SDS011;30778;53.574;7.770;2022-08-05T03:37:52;7.18;;;1.30;;
45039;SDS011;30778;53.574;7.770;2022-08-05T03:40:20;2.35;;;0.77;;
45039;SDS011;30778;53.574;7.770;2022-08-05T03:42:45;3.47;;;0.95;;
45039;SDS011;30778;53.574;7.770;2022-08-05T03:45:11;6.13;;;1.27;;
45039;SDS011;30778;53.574;7.770;2022-08-05T03:47:36;6.20;;;2.38;;
45039;SDS011;30778;53.574;7.770;2022-08-05T03:50:02;3.38;;;1.15;;
45039;SDS011;30778;53.574;7.770;2022-08-05T03:52:28;2.65;;;1.42;;
45039;SDS011;30778;53.574;7.770;2022-08-05T03:54:58;8.68;;;1.15;;
45039;SDS011;30778;53.574;7.770;2022-08-05T03:57:26;2.85;;;0.77;;
45039;SDS011;30778;53.574;7.770;2022-08-05T04:00:07;4.97;;;0.80;;
45039;SDS011;30778;53.574;7.770;2022-08-05T04:02:37;4.47;;;1.08;;
45039;SDS011;30778;53.574;7.770;2022-08-05T04:05:07;6.05;;;1.33;;
45039;SDS011;30778;53.574;7.770;2022-08-05T04:07:34;4.93;;;1.20;;
45039;SDS011;30778;53.574;7.770;2022-08-05T04:10:03;2.22;;;1.52;;
45039;SDS011;30778;53.574;7.770;2022-08-05T04:12:29;2.50;;;0.98;;
45039;SDS011;30778;53.574;7.770;2022-08-05T04:14:55;3.17;;;1.27;;
45039;SDS011;30778;53.574;7.770;2022-08-05T04:17:21;4.18;;;1.42;;
45039;SDS011;30778;53.574;7.770;2022-08-05T04:19:47;2.28;;;0.70;;
45039;SDS011;30778;53.574;7.770;2022-08-05T04:22:13;2.70;;;1.33;;
45039;SDS011;30778;53.574;7.770;2022-08-05T04:24:39;2.78;;;1.30;;
45039;SDS011;30778;53.574;7.770;2022-08-05T04:27:06;2.10;;;1.10;;
45039;SDS011;30778;53.574;7.770;2022-08-05T04:29:32;2.13;;;1.00;;
45039;SDS011;30778;53.574;7.770;2022-08-05T04:31:57;2.00;;;1.02;;
45039;SDS011;30778;53.574;7.770;2022-08-05T04:34:23;4.30;;;1.40;;
45039;SDS011;30778;53.574;7.770;2022-08-05T04:36:48;1.80;;;1.02;;
45039;SDS011;30778;53.574;7.770;2022-08-05T04:39:14;3.42;;;1.25;;
45039;SDS011;30778;53.574;7.770;2022-08-05T04:41:39;2.58;;;0.90;;
45039;SDS011;30778;53.574;7.770;2022-08-05T04:44:05;6.93;;;1.50;;
45039;SDS011;30778;53.574;7.770;2022-08-05T04:46:31;2.17;;;0.75;;
45039;SDS011;30778;53.574;7.770;2022-08-05T04:48:56;1.48;;;1.05;;
45039;SDS011;30778;53.574;7.770;2022-08-05T04:51:22;2.10;;;1.20;;
45039;SDS011;30778;53.574;7.770;2022-08-05T04:53:47;1.25;;;0.70;;
45039;SDS011;30778;53.574;7.770;2022-08-05T04:56:13;2.17;;;1.10;;
45039;SDS011;30778;53.574;7.770;2022-08-05T04:58:39;1.58;;;1.00;;
45039;SDS011;30778;53.574;7.770;2022-08-05T05:01:05;4.82;;;1.02;;
45039;SDS011;30778;53.574;7.770;2022-08-05T05:03:30;2.85;;;0.77;;
45039;SDS011;30778;53.574;7.770;2022-08-05T05:05:56;2.22;;;1.40;;
45039;SDS011;30778;53.574;7.770;2022-08-05T05:08:22;8.48;;;2.17;;
45039;SDS011;30778;53.574;7.770;2022-08-05T05:10:47;7.65;;;1.90;;
45039;SDS011;30778;53.574;7.770;2022-08-05T05:13:14;8.00;;;1.35;;
45039;SDS011;30778;53.574;7.770;2022-08-05T05:15:40;3.15;;;0.70;;
45039;SDS011;30778;53.574;7.770;2022-08-05T05:18:07;3.30;;;1.30;;
45039;SDS011;30778;53.574;7.770;2022-08-05T05:20:33;7.13;;;0.90;;
45039;SDS011;30778;53.574;7.770;2022-08-05T05:23:00;2.28;;;0.90;;
45039;SDS011;30778;53.574;7.770;2022-08-05T05:25:28;4.90;;;1.17;;
45039;SDS011;30778;53.574;7.770;2022-08-05T05:27:54;6.00;;;0.85;;
45039;SDS011;30778;53.574;7.770;2022-08-05T05:30:20;2.83;;;1.35;;
45039;SDS011;30778;53.574;7.770;2022-08-05T05:32:47;3.67;;;1.27;;
45039;SDS011;30778;53.574;7.770;2022-08-05T05:35:12;8.48;;;1.25;;
45039;SDS011;30778;53.574;7.770;2022-08-05T05:37:57;4.28;;;1.02;;
45039;SDS011;30778;53.574;7.770;2022-08-05T05:40:24;2.70;;;1.48;;
45039;SDS011;30778;53.574;7.770;2022-08-05T05:42:52;2.97;;;0.73;;
45039;SDS011;30778;53.574;7.770;2022-08-05T05:45:18;4.32;;;1.42;;
45039;SDS011;30778;53.574;7.770;2022-08-05T05:47:44;1.60;;;0.63;;
45039;SDS011;30778;53.574;7.770;2022-08-05T05:50:12;1.80;;;1.00;;
45039;SDS011;30778;53.574;7.770;2022-08-05T05:52:39;3.25;;;1.48;;
45039;SDS011;30778;53.574;7.770;2022-08-05T05:55:05;1.45;;;0.50;;
45039;SDS011;30778;53.574;7.770;2022-08-05T05:57:34;1.33;;;0.60;;
45039;SDS011;30778;53.574;7.770;2022-08-05T06:00:00;4.85;;;0.98;;
45039;SDS011;30778;53.574;7.770;2022-08-05T06:02:26;6.28;;;2.03;;
45039;SDS011;30778;53.574;7.770;2022-08-05T06:04:52;2.85;;;0.63;;
45039;SDS011;30778;53.574;7.770;2022-08-05T06:07:17;3.58;;;0.35;;
45039;SDS011;30778;53.574;7.770;2022-08-05T06:09:42;3.05;;;0.55;;
45039;SDS011;30778;53.574;7.770;2022-08-05T06:12:08;5.82;;;0.80;;
45039;SDS011;30778;53.574;7.770;2022-08-05T06:14:34;1.27;;;0.47;;
45039;SDS011;30778;53.574;7.770;2022-08-05T06:16:59;2.15;;;0.30;;
45039;SDS011;30778;53.574;7.770;2022-08-05T06:19:25;3.00;;;0.50;;
45039;SDS011;30778;53.574;7.770;2022-08-05T06:21:51;1.63;;;0.30;;
45039;SDS011;30778;53.574;7.770;2022-08-05T06:24:16;5.50;;;1.00;;
45039;SDS011;30778;53.574;7.770;2022-08-05T06:26:42;3.30;;;0.20;;
45039;SDS011;30778;53.574;7.770;2022-08-05T06:29:08;3.15;;;0.63;;
45039;SDS011;30778;53.574;7.770;2022-08-05T06:31:33;3.40;;;0.20;;
45039;SDS011;30778;53.574;7.770;2022-08-05T06:33:59;2.35;;;0.20;;
45039;SDS011;30778;53.574;7.770;2022-08-05T06:36:24;3.38;;;0.30;;
45039;SDS011;30778;53.574;7.770;2022-08-05T06:38:50;3.55;;;0.20;;
45039;SDS011;30778;53.574;7.770;2022-08-05T06:41:18;0.82;;;0.20;;
45039;SDS011;30778;53.574;7.770;2022-08-05T06:43:45;2.85;;;0.30;;
45039;SDS011;30778;53.574;7.770;2022-08-05T06:46:11;2.70;;;0.63;;
45039;SDS011;30778;53.574;7.770;2022-08-05T06:48:37;2.85;;;0.40;;
45039;SDS011;30778;53.574;7.770;2022-08-05T06:51:03;0.98;;;0.22;;
45039;SDS011;30778;53.574;7.770;2022-08-05T06:53:28;3.85;;;0.25;;
45039;SDS011;30778;53.574;7.770;2022-08-05T06:55:55;1.85;;;0.20;;
45039;SDS011;30778;53.574;7.770;2022-08-05T06:58:22;4.38;;;0.20;;
45039;SDS011;30778;53.574;7.770;2022-08-05T07:00:48;5.85;;;0.28;;
45039;SDS011;30778;53.574;7.770;2022-08-05T07:03:13;4.55;;;0.98;;
45039;SDS011;30778;53.574;7.770;2022-08-05T07:05:39;1.70;;;0.20;;
45039;SDS011;30778;53.574;7.770;2022-08-05T07:08:04;1.20;;;0.30;;
45039;SDS011;30778;53.574;7.770;2022-08-05T07:10:31;1.40;;;0.10;;
45039;SDS011;30778;53.574;7.770;2022-08-05T07:12:57;2.70;;;0.52;;
45039;SDS011;30778;53.574;7.770;2022-08-05T07:15:41;2.78;;;0.68;;
45039;SDS011;30778;53.574;7.770;2022-08-05T07:18:25;1.20;;;0.20;;
45039;SDS011;30778;53.574;7.770;2022-08-05T07:20:50;3.38;;;0.70;;
45039;SDS011;30778;53.574;7.770;2022-08-05T07:23:16;3.40;;;0.25;;
45039;SDS011;30778;53.574;7.770;2022-08-05T07:25:41;2.78;;;0.47;;
45039;SDS011;30778;53.574;7.770;2022-08-05T07:28:07;3.17;;;0.20;;
45039;SDS011;30778;53.574;7.770;2022-08-05T07:30:33;1.02;;;0.20;;
45039;SDS011;30778;53.574;7.770;2022-08-05T07:33:03;3.70;;;0.20;;
45039;SDS011;30778;53.574;7.770;2022-08-05T07:35:30;2.53;;;0.10;;
45039;SDS011;30778;53.574;7.770;2022-08-05T07:37:56;0.77;;;0.20;;
45039;SDS011;30778;53.574;7.770;2022-08-05T07:40:21;4.80;;;0.20;;
45039;SDS011;30778;53.574;7.770;2022-08-05T07:42:47;0.22;;;0.10;;
45039;SDS011;30778;53.574;7.770;2022-08-05T07:45:13;1.13;;;0.10;;
45039;SDS011;30778;53.574;7.770;2022-08-05T07:47:40;2.10;;;0.20;;
45039;SDS011;30778;53.574;7.770;2022-08-05T07:50:06;2.72;;;0.10;;
45039;SDS011;30778;53.574;7.770;2022-08-05T07:52:37;1.50;;;0.20;;
45039;SDS011;30778;53.574;7.770;2022-08-05T07:55:04;2.13;;;0.22;;
45039;SDS011;30778;53.574;7.770;2022-08-05T07:57:30;5.72;;;1.38;;
45039;SDS011;30778;53.574;7.770;2022-08-05T07:59:55;1.67;;;0.80;;
45039;SDS011;30778;53.574;7.770;2022-08-05T08:02:24;3.80;;;0.10;;
45039;SDS011;30778;53.574;7.770;2022-08-05T08:04:51;4.65;;;0.20;;
45039;SDS011;30778;53.574;7.770;2022-08-05T08:07:17;1.48;;;0.10;;
45039;SDS011;30778;53.574;7.770;2022-08-05T08:09:44;0.50;;;0.00;;
45039;SDS011;30778;53.574;7.770;2022-08-05T08:12:10;4.97;;;0.30;;
45039;SDS011;30778;53.574;7.770;2022-08-05T08:14:39;1.67;;;0.35;;
45039;SDS011;30778;53.574;7.770;2022-08-05T08:17:06;1.63;;;0.10;;
45039;SDS011;30778;53.574;7.770;2022-08-05T08:19:38;1.35;;;0.10;;
45039;SDS011;30778;53.574;7.770;2022-08-05T08:22:05;0.75;;;0.20;;
45039;SDS011;30778;53.574;7.770;2022-08-05T08:24:32;1.95;;;0.10;;
45039;SDS011;30778;53.574;7.770;2022-08-05T08:26:58;0.77;;;0.10;;
45039;SDS011;30778;53.574;7.770;2022-08-05T08:29:23;1.88;;;0.10;;
45039;SDS011;30778;53.574;7.770;2022-08-05T08:31:49;2.90;;;0.10;;
45039;SDS011;30778;53.574;7.770;2022-08-05T08:34:18;3.03;;;0.20;;
45039;SDS011;30778;53.574;7.770;2022-08-05T08:39:11;3.97;;;0.10;;
45039;SDS011;30778;53.574;7.770;2022-08-05T08:41:39;2.17;;;0.10;;
45039;SDS011;30778;53.574;7.770;2022-08-05T08:44:09;3.50;;;0.15;;
45039;SDS011;30778;53.574;7.770;2022-08-05T08:46:39;4.43;;;0.10;;
45039;SDS011;30778;53.574;7.770;2022-08-05T08:49:05;4.88;;;0.22;;
45039;SDS011;30778;53.574;7.770;2022-08-05T08:51:33;0.52;;;0.00;;
45039;SDS011;30778;53.574;7.770;2022-08-05T08:54:01;1.35;;;0.57;;
45039;SDS011;30778;53.574;7.770;2022-08-05T08:56:26;1.98;;;0.10;;
45039;SDS011;30778;53.574;7.770;2022-08-05T08:58:52;1.60;;;0.30;;
45039;SDS011;30778;53.574;7.770;2022-08-05T09:01:18;2.90;;;0.38;;
45039;SDS011;30778;53.574;7.770;2022-08-05T09:03:45;1.60;;;0.15;;
45039;SDS011;30778;53.574;7.770;2022-08-05T09:06:14;14.60;;;0.65;;
45039;SDS011;30778;53.574;7.770;2022-08-05T09:08:40;3.20;;;0.10;;
45039;SDS011;30778;53.574;7.770;2022-08-05T09:11:05;1.55;;;0.10;;
45039;SDS011;30778;53.574;7.770;2022-08-05T09:13:32;2.60;;;0.30;;
45039;SDS011;30778;53.574;7.770;2022-08-05T09:15:58;0.10;;;0.10;;
45039;SDS011;30778;53.574;7.770;2022-08-05T09:18:24;2.03;;;0.10;;
45039;SDS011;30778;53.574;7.770;2022-08-05T09:20:49;1.83;;;0.00;;
45039;SDS011;30778;53.574;7.770;2022-08-05T09:23:15;0.80;;;0.00;;
45039;SDS011;30778;53.574;7.770;2022-08-05T09:25:43;5.95;;;0.20;;
45039;SDS011;30778;53.574;7.770;2022-08-05T09:28:21;1.85;;;0.25;;
45039;SDS011;30778;53.574;7.770;2022-08-05T09:33:17;4.22;;;0.20;;
45039;SDS011;30778;53.574;7.770;2022-08-05T09:35:59;4.28;;;0.17;;
45039;SDS011;30778;53.574;7.770;2022-08-05T09:38:26;3.03;;;0.10;;
45039;SDS011;30778;53.574;7.770;2022-08-05T09:40:52;5.60;;;0.30;;
45039;SDS011;30778;53.574;7.770;2022-08-05T09:46:26;3.03;;;0.68;;
45039;SDS011;30778;53.574;7.770;2022-08-05T09:48:52;0.93;;;0.10;;
45039;SDS011;30778;53.574;7.770;2022-08-05T09:51:29;0.93;;;0.10;;
45039;SDS011;30778;53.574;7.770;2022-08-05T09:53:57;2.85;;;0.40;;
45039;SDS011;30778;53.574;7.770;2022-08-05T09:56:26;1.70;;;0.20;;
45039;SDS011;30778;53.574;7.770;2022-08-05T09:59:01;1.75;;;0.10;;
45039;SDS011;30778;53.574;7.770;2022-08-05T10:01:28;2.30;;;0.10;;
45039;SDS011;30778;53.574;7.770;2022-08-05T10:06:37;2.78;;;0.40;;
45039;SDS011;30778;53.574;7.770;2022-08-05T10:11:43;2.45;;;0.60;;
45039;SDS011;30778;53.574;7.770;2022-08-05T10:17:11;2.40;;;0.10;;
45039;SDS011;30778;53.574;7.770;2022-08-05T10:19:38;1.08;;;0.10;;
45039;SDS011;30778;53.574;7.770;2022-08-05T10:22:05;0.85;;;0.17;;
45039;SDS011;30778;53.574;7.770;2022-08-05T10:24:32;2.05;;;0.10;;
45039;SDS011;30778;53.574;7.770;2022-08-05T10:26:57;2.20;;;0.20;;
45039;SDS011;30778;53.574;7.770;2022-08-05T10:29:24;1.63;;;0.10;;
45039;SDS011;30778;53.574;7.770;2022-08-05T10:31:51;2.65;;;0.25;;
45039;SDS011;30778;53.574;7.770;2022-08-05T10:34:17;0.82;;;0.10;;
45039;SDS011;30778;53.574;7.770;2022-08-05T10:36:43;0.32;;;0.10;;
45039;SDS011;30778;53.574;7.770;2022-08-05T10:39:11;0.70;;;0.10;;
45039;SDS011;30778;53.574;7.770;2022-08-05T10:41:52;0.30;;;0.10;;
45039;SDS011;30778;53.574;7.770;2022-08-05T10:44:25;6.70;;;0.17;;
45039;SDS011;30778;53.574;7.770;2022-08-05T10:46:54;2.28;;;0.40;;
45039;SDS011;30778;53.574;7.770;2022-08-05T10:49:22;1.02;;;0.30;;
45039;SDS011;30778;53.574;7.770;2022-08-05T10:51:49;1.02;;;0.10;;
45039;SDS011;30778;53.574;7.770;2022-08-05T10:57:12;1.23;;;0.10;;
45039;SDS011;30778;53.574;7.770;2022-08-05T10:59:51;1.02;;;0.20;;
45039;SDS011;30778;53.574;7.770;2022-08-05T11:02:31;1.73;;;0.73;;
45039;SDS011;30778;53.574;7.770;2022-08-05T11:04:56;2.35;;;0.28;;
45039;SDS011;30778;53.574;7.770;2022-08-05T11:07:22;2.97;;;0.28;;
45039;SDS011;30778;53.574;7.770;2022-08-05T11:09:49;2.38;;;0.77;;
45039;SDS011;30778;53.574;7.770;2022-08-05T11:15:34;2.22;;;0.10;;
45039;SDS011;30778;53.574;7.770;2022-08-05T11:20:49;4.32;;;0.25;;
45039;SDS011;30778;53.574;7.770;2022-08-05T11:26:09;1.40;;;0.20;;
45039;SDS011;30778;53.574;7.770;2022-08-05T11:28:39;3.50;;;0.15;;
45039;SDS011;30778;53.574;7.770;2022-08-05T11:33:35;3.25;;;0.10;;
45039;SDS011;30778;53.574;7.770;2022-08-05T11:36:05;1.25;;;0.40;;
45039;SDS011;30778;53.574;7.770;2022-08-05T11:43:31;2.40;;;0.10;;
45039;SDS011;30778;53.574;7.770;2022-08-05T11:45:58;1.10;;;0.25;;
45039;SDS011;30778;53.574;7.770;2022-08-05T11:48:24;2.60;;;0.10;;
45039;SDS011;30778;53.574;7.770;2022-08-05T11:50:51;1.85;;;0.10;;
45039;SDS011;30778;53.574;7.770;2022-08-05T11:53:17;3.25;;;0.15;;
45039;SDS011;30778;53.574;7.770;2022-08-05T11:58:27;0.52;;;0.10;;
45039;SDS011;30778;53.574;7.770;2022-08-05T12:01:01;1.15;;;0.10;;
45039;SDS011;30778;53.574;7.770;2022-08-05T12:03:39;1.40;;;0.30;;
45039;SDS011;30778;53.574;7.770;2022-08-05T12:06:05;0.28;;;0.00;;
45039;SDS011;30778;53.574;7.770;2022-08-05T12:08:31;0.70;;;0.10;;
45039;SDS011;30778;53.574;7.770;2022-08-05T12:10:57;4.93;;;0.10;;
45039;SDS011;30778;53.574;7.770;2022-08-05T12:13:25;1.00;;;0.35;;
45039;SDS011;30778;53.574;7.770;2022-08-05T12:15:50;0.40;;;0.10;;
45039;SDS011;30778;53.574;7.770;2022-08-05T12:18:32;1.65;;;0.10;;
45039;SDS011;30778;53.574;7.770;2022-08-05T12:21:12;0.10;;;0.05;;
45039;SDS011;30778;53.574;7.770;2022-08-05T12:23:39;3.28;;;0.10;;
45039;SDS011;30778;53.574;7.770;2022-08-05T12:26:15;1.10;;;0.10;;
45039;SDS011;30778;53.574;7.770;2022-08-05T12:28:40;0.73;;;0.50;;
45039;SDS011;30778;53.574;7.770;2022-08-05T12:31:06;1.13;;;0.10;;
45039;SDS011;30778;53.574;7.770;2022-08-05T12:33:32;0.47;;;0.00;;
45039;SDS011;30778;53.574;7.770;2022-08-05T12:35:59;0.35;;;0.00;;
45039;SDS011;30778;53.574;7.770;2022-08-05T12:38:25;1.52;;;0.10;;
45039;SDS011;30778;53.574;7.770;2022-08-05T12:40:51;1.65;;;0.20;;
45039;SDS011;30778;53.574;7.770;2022-08-05T12:43:18;2.63;;;0.55;;
45039;SDS011;30778;53.574;7.770;2022-08-05T12:45:53;0.52;;;0.10;;
45039;SDS011;30778;53.574;7.770;2022-08-05T12:48:21;0.63;;;0.10;;
45039;SDS011;30778;53.574;7.770;2022-08-05T12:53:40;0.13;;;0.00;;
45039;SDS011;30778;53.574;7.770;2022-08-05T12:56:17;0.20;;;0.00;;
45039;SDS011;30778;53.574;7.770;2022-08-05T12:59:09;0.65;;;0.03;;
45039;SDS011;30778;53.574;7.770;2022-08-05T13:01:39;1.45;;;0.00;;
45039;SDS011;30778;53.574;7.770;2022-08-05T13:04:06;0.52;;;0.10;;
45039;SDS011;30778;53.574;7.770;2022-08-05T13:06:32;0.85;;;0.03;;
45039;SDS011;30778;53.574;7.770;2022-08-05T13:09:06;0.10;;;0.10;;
45039;SDS011;30778;53.574;7.770;2022-08-05T13:11:35;0.50;;;0.10;;
45039;SDS011;30778;53.574;7.770;2022-08-05T13:14:08;0.30;;;0.28;;
45039;SDS011;30778;53.574;7.770;2022-08-05T13:16:55;4.30;;;3.67;;
45039;SDS011;30778;53.574;7.770;2022-08-05T13:19:25;2.70;;;2.38;;
45039;SDS011;30778;53.574;7.770;2022-08-05T13:21:53;3.05;;;0.57;;
45039;SDS011;30778;53.574;7.770;2022-08-05T13:24:20;0.73;;;0.10;;
45039;SDS011;30778;53.574;7.770;2022-08-05T13:26:48;0.55;;;0.00;;
45039;SDS011;30778;53.574;7.770;2022-08-05T13:29:14;3.63;;;0.10;;
45039;SDS011;30778;53.574;7.770;2022-08-05T13:31:40;0.10;;;0.03;;
45039;SDS011;30778;53.574;7.770;2022-08-05T13:34:06;0.98;;;0.00;;
45039;SDS011;30778;53.574;7.770;2022-08-05T13:36:32;0.25;;;0.00;;
45039;SDS011;30778;53.574;7.770;2022-08-05T13:38:59;1.30;;;0.10;;
45039;SDS011;30778;53.574;7.770;2022-08-05T13:41:25;3.55;;;0.10;;
45039;SDS011;30778;53.574;7.770;2022-08-05T13:43:51;0.55;;;0.00;;
45039;SDS011;30778;53.574;7.770;2022-08-05T13:46:16;1.00;;;0.10;;
45039;SDS011;30778;53.574;7.770;2022-08-05T13:48:42;0.40;;;0.10;;
45039;SDS011;30778;53.574;7.770;2022-08-05T13:51:08;1.58;;;0.00;;
45039;SDS011;30778;53.574;7.770;2022-08-05T13:53:35;0.30;;;0.10;;
45039;SDS011;30778;53.574;7.770;2022-08-05T13:56:01;1.50;;;0.30;;
45039;SDS011;30778;53.574;7.770;2022-08-05T13:58:28;2.28;;;0.00;;
45039;SDS011;30778;53.574;7.770;2022-08-05T14:00:54;0.73;;;0.00;;
45039;SDS011;30778;53.574;7.770;2022-08-05T14:03:19;0.73;;;0.00;;
45039;SDS011;30778;53.574;7.770;2022-08-05T14:05:45;0.10;;;0.00;;
45039;SDS011;30778;53.574;7.770;2022-08-05T14:08:10;4.13;;;0.00;;
45039;SDS011;30778;53.574;7.770;2022-08-05T14:10:36;0.00;;;0.00;;
45039;SDS011;30778;53.574;7.770;2022-08-05T14:13:03;0.10;;;0.00;;
45039;SDS011;30778;53.574;7.770;2022-08-05T14:15:32;0.30;;;0.00;;
45039;SDS011;30778;53.574;7.770;2022-08-05T14:17:58;1.50;;;0.10;;
45039;SDS011;30778;53.574;7.770;2022-08-05T14:20:30;0.65;;;0.10;;
45039;SDS011;30778;53.574;7.770;2022-08-05T14:22:56;0.38;;;0.00;;
45039;SDS011;30778;53.574;7.770;2022-08-05T14:25:22;1.85;;;0.00;;
45039;SDS011;30778;53.574;7.770;2022-08-05T14:27:49;0.55;;;0.00;;
45039;SDS011;30778;53.574;7.770;2022-08-05T14:30:15;3.75;;;0.10;;
45039;SDS011;30778;53.574;7.770;2022-08-05T14:32:42;1.40;;;0.00;;
45039;SDS011;30778;53.574;7.770;2022-08-05T14:35:08;0.32;;;0.03;;
45039;SDS011;30778;53.574;7.770;2022-08-05T14:37:34;0.93;;;0.00;;
45039;SDS011;30778;53.574;7.770;2022-08-05T14:40:00;0.20;;;0.00;;
45039;SDS011;30778;53.574;7.770;2022-08-05T14:42:26;0.82;;;0.00;;
45039;SDS011;30778;53.574;7.770;2022-08-05T14:44:51;0.65;;;0.00;;
45039;SDS011;30778;53.574;7.770;2022-08-05T14:47:17;0.45;;;0.00;;
45039;SDS011;30778;53.574;7.770;2022-08-05T14:49:43;1.35;;;0.00;;
45039;SDS011;30778;53.574;7.770;2022-08-05T14:52:08;1.65;;;0.00;;
45039;SDS011;30778;53.574;7.770;2022-08-05T14:54:34;2.53;;;0.10;;
45039;SDS011;30778;53.574;7.770;2022-08-05T14:56:59;0.40;;;0.00;;
45039;SDS011;30778;53.574;7.770;2022-08-05T14:59:25;0.32;;;0.05;;
45039;SDS011;30778;53.574;7.770;2022-08-05T15:01:51;0.95;;;0.00;;
45039;SDS011;30778;53.574;7.770;2022-08-05T15:04:17;1.13;;;0.00;;
45039;SDS011;30778;53.574;7.770;2022-08-05T15:06:43;1.45;;;0.00;;
45039;SDS011;30778;53.574;7.770;2022-08-05T15:09:08;6.30;;;0.80;;
45039;SDS011;30778;53.574;7.770;2022-08-05T15:11:34;1.50;;;0.10;;
45039;SDS011;30778;53.574;7.770;2022-08-05T15:14:00;1.92;;;0.00;;
45039;SDS011;30778;53.574;7.770;2022-08-05T15:16:27;0.10;;;0.03;;
45039;SDS011;30778;53.574;7.770;2022-08-05T15:18:52;1.25;;;0.25;;
45039;SDS011;30778;53.574;7.770;2022-08-05T15:21:18;3.13;;;0.00;;
45039;SDS011;30778;53.574;7.770;2022-08-05T15:23:43;0.70;;;0.10;;
45039;SDS011;30778;53.574;7.770;2022-08-05T15:26:09;2.17;;;0.00;;
45039;SDS011;30778;53.574;7.770;2022-08-05T15:28:34;0.93;;;0.10;;
45039;SDS011;30778;53.574;7.770;2022-08-05T15:31:00;0.10;;;0.05;;
45039;SDS011;30778;53.574;7.770;2022-08-05T15:33:25;2.53;;;0.95;;
45039;SDS011;30778;53.574;7.770;2022-08-05T15:35:51;1.92;;;0.10;;
45039;SDS011;30778;53.574;7.770;2022-08-05T15:38:17;0.45;;;0.40;;
45039;SDS011;30778;53.574;7.770;2022-08-05T15:40:42;3.13;;;0.20;;